Time;durP1;ratioP1;P1;durP2;ratioP2;P2;SDS_P1;SDS_P2;PMS_P1;PMS_P2;Temp;Humidity;BMP_temperature;BMP_pressure;BME280_temperature;BME280_humidity;BME280_pressure;Samples;Min_cycle;Max_cycle;Signal;HPM_P1;HPM_P2
2022/11/12 00:00:54;;;;;;;5.15;4.65;;;12.60;99.90;;;;;;5083988;28;20236;-78
2022/11/12 00:03:22;;;;;;;4.50;4.10;;;12.60;99.90;;;;;;5092171;28;20216;-77
2022/11/12 00:05:52;;;;;;;4.68;4.25;;;12.60;99.90;;;;;;5082662;28;20231;-77
2022/11/12 00:08:19;;;;;;;5.50;4.97;;;12.50;99.90;;;;;;5078835;28;20227;-78
2022/11/12 00:10:50;;;;;;;6.30;5.40;;;12.50;99.90;;;;;;5089338;28;20231;-78
2022/11/12 00:13:18;;;;;;;4.90;4.50;;;12.50;99.90;;;;;;5090867;28;20672;-79
2022/11/12 00:15:46;;;;;;;5.53;4.55;;;12.50;99.90;;;;;;5085388;28;20243;-80
2022/11/12 00:18:13;;;;;;;4.15;3.80;;;12.50;99.90;;;;;;5091246;28;20227;-78
2022/11/12 00:20:40;;;;;;;4.22;3.88;;;12.50;99.90;;;;;;5092942;28;20230;-77
2022/11/12 00:23:08;;;;;;;4.57;4.15;;;12.50;99.90;;;;;;5089883;28;20323;-77
2022/11/12 00:25:38;;;;;;;5.55;4.55;;;12.50;99.90;;;;;;5089292;28;20667;-78
2022/11/12 00:28:10;;;;;;;4.68;3.58;;;12.50;99.90;;;;;;5085176;28;20227;-79
2022/11/12 00:30:40;;;;;;;6.00;5.40;;;12.50;99.90;;;;;;5087588;28;20230;-77
2022/11/12 00:33:08;;;;;;;5.38;4.75;;;12.40;99.90;;;;;;5092473;28;20238;-77
2022/11/12 00:35:35;;;;;;;5.32;4.80;;;12.50;99.90;;;;;;5091148;28;20231;-75
2022/11/12 00:38:02;;;;;;;7.00;4.80;;;12.50;99.90;;;;;;5092087;28;20215;-77
2022/11/12 00:40:35;;;;;;;6.00;5.10;;;12.40;99.90;;;;;;5089088;28;20637;-76
2022/11/12 00:43:25;;;;;;;;;;;;;;;;;;;;;
2022/11/12 00:46:09;;;;;;;6.75;5.05;;;12.40;99.90;;;;;;5074263;28;20425;-77
2022/11/12 00:48:56;;;;;;;4.20;3.50;;;12.40;99.90;;;;;;5086306;28;20778;-77
2022/11/12 00:51:41;;;;;;;4.80;4.40;;;12.40;99.90;;;;;;5088285;28;20212;-77
2022/11/12 00:54:13;;;;;;;5.43;4.00;;;12.40;99.90;;;;;;5078450;28;20728;-77
2022/11/12 00:56:47;;;;;;;5.80;4.00;;;12.40;99.90;;;;;;5086002;28;20405;-76
2022/11/12 00:59:41;;;;;;;5.18;3.63;;;12.40;99.90;;;;;;5053044;28;20220;-76
2022/11/12 01:05:24;;;;;;;5.13;4.57;;;12.30;99.90;;;;;;5047349;28;20235;-77
2022/11/12 01:08:02;;;;;;;4.15;3.70;;;12.30;99.90;;;;;;5091813;28;20245;-77
2022/11/12 01:10:29;;;;;;;5.05;3.97;;;12.30;99.90;;;;;;5069932;28;20223;-77
2022/11/12 01:12:57;;;;;;;4.38;3.95;;;12.30;99.90;;;;;;5067935;28;20310;-77
2022/11/12 01:15:24;;;;;;;4.97;4.30;;;12.30;99.90;;;;;;5090680;28;20541;-77
2022/11/12 01:18:17;;;;;;;4.22;3.70;;;12.30;99.90;;;;;;5081570;28;20619;-76
2022/11/12 01:21:06;;;;;;;4.82;4.07;;;12.30;99.90;;;;;;5083268;28;20215;-77
2022/11/12 01:23:52;;;;;;;4.75;4.22;;;12.30;99.90;;;;;;5081996;28;20230;-78
2022/11/12 01:26:21;;;;;;;4.95;4.15;;;12.20;99.90;;;;;;5091158;28;20306;-78
2022/11/12 01:28:48;;;;;;;5.63;4.50;;;12.20;99.90;;;;;;5092255;28;20232;-78
2022/11/12 01:31:18;;;;;;;4.60;3.92;;;12.20;99.90;;;;;;5092491;28;20227;-78
2022/11/12 01:33:47;;;;;;;7.85;4.07;;;12.20;99.90;;;;;;5091708;28;20227;-78
2022/11/12 01:36:17;;;;;;;4.78;4.10;;;12.20;99.90;;;;;;5092716;28;20306;-78
2022/11/12 01:38:45;;;;;;;5.93;5.18;;;12.20;99.90;;;;;;5092215;28;20250;-77
2022/11/12 01:41:15;;;;;;;4.30;3.90;;;12.20;99.90;;;;;;5092210;28;20223;-76
2022/11/12 01:43:42;;;;;;;6.03;4.60;;;12.20;99.90;;;;;;5091405;28;20497;-76
2022/11/12 01:46:16;;;;;;;5.55;5.05;;;12.20;99.90;;;;;;5092684;28;20562;-77
2022/11/12 01:48:49;;;;;;;5.55;4.97;;;12.20;99.90;;;;;;5094082;28;20290;-76
2022/11/12 01:51:31;;;;;;;4.95;4.47;;;12.10;99.90;;;;;;5096433;28;20629;-77
2022/11/12 01:54:03;;;;;;;4.43;4.03;;;12.10;99.90;;;;;;5096442;28;20556;-77
2022/11/12 01:56:31;;;;;;;5.32;4.82;;;12.10;99.90;;;;;;5096674;28;20227;-77
2022/11/12 01:59:02;;;;;;;5.97;5.03;;;12.10;99.90;;;;;;5085693;28;20591;-77
2022/11/12 02:01:30;;;;;;;5.63;4.53;;;12.10;99.90;;;;;;5095543;28;20219;-77
2022/11/12 02:03:57;;;;;;;5.07;4.57;;;12.00;99.90;;;;;;5095666;28;20670;-77
2022/11/12 02:06:26;;;;;;;5.30;4.45;;;12.00;99.90;;;;;;5096548;28;20223;-78
2022/11/12 02:08:54;;;;;;;6.70;5.72;;;12.00;99.90;;;;;;5095859;28;20231;-77
2022/11/12 02:11:24;;;;;;;6.00;5.25;;;12.00;99.90;;;;;;5096574;28;20731;-77
2022/11/12 02:13:59;;;;;;;5.13;4.63;;;12.00;99.90;;;;;;5096416;28;20361;-78
2022/11/12 02:16:29;;;;;;;5.50;5.00;;;12.00;99.90;;;;;;5096585;28;20647;-77
2022/11/12 02:18:56;;;;;;;6.28;4.60;;;11.90;99.90;;;;;;5095514;28;20258;-76
2022/11/12 02:21:30;;;;;;;10.65;5.05;;;11.90;99.90;;;;;;5096333;28;20222;-78
2022/11/12 02:23:59;;;;;;;6.03;4.38;;;11.90;99.90;;;;;;5095671;28;20685;-77
2022/11/12 02:26:31;;;;;;;4.80;4.32;;;11.90;99.90;;;;;;5095754;28;20719;-79
2022/11/12 02:29:01;;;;;;;4.65;4.25;;;11.80;99.90;;;;;;5095890;28;20219;-79
2022/11/12 02:31:31;;;;;;;6.13;4.75;;;11.90;99.90;;;;;;5096093;28;20223;-79
2022/11/12 02:33:58;;;;;;;4.45;4.05;;;11.80;99.90;;;;;;5095619;28;20560;-78
2022/11/12 02:36:26;;;;;;;6.13;5.10;;;11.80;99.90;;;;;;5095841;28;20745;-79
2022/11/12 02:38:54;;;;;;;5.95;5.35;;;11.80;99.90;;;;;;5095269;28;20227;-78
2022/11/12 02:41:21;;;;;;;7.20;5.25;;;11.70;99.90;;;;;;5096607;28;20238;-79
2022/11/12 02:43:48;;;;;;;6.25;5.38;;;11.70;99.90;;;;;;5095321;28;20219;-78
2022/11/12 02:46:15;;;;;;;8.25;4.70;;;11.70;99.90;;;;;;5095447;28;20247;-79
2022/11/12 02:48:44;;;;;;;5.35;4.25;;;11.70;99.90;;;;;;5092219;28;20318;-78
2022/11/12 02:51:11;;;;;;;4.90;4.40;;;11.70;99.90;;;;;;5095690;28;20289;-79
2022/11/12 02:53:40;;;;;;;4.72;4.32;;;11.70;99.90;;;;;;5085214;28;20706;-78
2022/11/12 02:56:07;;;;;;;14.95;12.82;;;11.60;99.90;;;;;;5075270;28;20284;-79
2022/11/12 02:58:37;;;;;;;14.75;9.95;;;11.60;99.90;;;;;;5094553;28;20304;-78
2022/11/12 03:01:04;;;;;;;7.10;5.82;;;11.60;99.90;;;;;;5094463;28;20223;-77
2022/11/12 03:03:31;;;;;;;5.68;4.90;;;11.60;99.90;;;;;;5095678;28;20230;-78
2022/11/12 03:06:05;;;;;;;4.80;4.32;;;11.60;99.90;;;;;;5083510;28;20233;-78
2022/11/12 03:08:32;;;;;;;9.05;4.50;;;11.60;99.90;;;;;;5079320;28;20699;-77
2022/11/12 03:11:06;;;;;;;6.13;4.43;;;11.60;99.90;;;;;;5091488;28;20301;-78
2022/11/12 03:13:34;;;;;;;4.95;4.50;;;11.50;99.90;;;;;;5094012;28;20598;-79
2022/11/12 03:16:01;;;;;;;5.45;3.92;;;11.50;99.90;;;;;;5094119;28;20638;-79
2022/11/12 03:18:28;;;;;;;4.40;3.55;;;11.50;99.90;;;;;;5094782;28;20223;-76
2022/11/12 03:20:55;;;;;;;4.10;3.67;;;11.50;99.90;;;;;;5083519;28;20250;-79
2022/11/12 03:23:23;;;;;;;5.05;4.43;;;11.40;99.90;;;;;;5092212;28;20223;-79
2022/11/12 03:25:50;;;;;;;5.53;4.00;;;11.40;99.90;;;;;;5085013;28;20227;-79
2022/11/12 03:28:18;;;;;;;5.10;3.80;;;11.40;99.90;;;;;;5093742;28;20288;-77
2022/11/12 03:30:46;;;;;;;5.70;4.57;;;11.40;99.90;;;;;;5094102;28;20567;-77
2022/11/12 03:33:16;;;;;;;5.85;4.95;;;11.40;99.90;;;;;;5092140;28;20695;-78
2022/11/12 03:35:45;;;;;;;5.25;4.30;;;11.40;99.90;;;;;;5084829;28;20240;-77
2022/11/12 03:38:12;;;;;;;4.20;3.65;;;11.30;99.90;;;;;;5090666;28;20246;-78
2022/11/12 03:40:39;;;;;;;6.15;4.32;;;11.30;99.90;;;;;;5093650;28;20227;-78
2022/11/12 03:43:06;;;;;;;5.93;5.38;;;11.30;99.90;;;;;;5092764;28;20313;-77
2022/11/12 03:45:37;;;;;;;6.20;5.60;;;11.30;99.90;;;;;;5093514;28;20215;-77
2022/11/12 03:48:05;;;;;;;6.80;5.43;;;11.30;99.90;;;;;;5093180;28;20243;-77
2022/11/12 03:50:35;;;;;;;4.30;3.90;;;11.30;99.90;;;;;;5093284;28;20227;-77
2022/11/12 03:53:04;;;;;;;5.85;4.95;;;11.30;99.90;;;;;;5092493;28;20227;-77
2022/11/12 03:55:31;;;;;;;5.18;4.60;;;11.30;99.90;;;;;;5093821;28;20219;-77
2022/11/12 03:58:02;;;;;;;6.47;4.18;;;11.30;99.90;;;;;;5093437;28;20231;-78
2022/11/12 04:00:30;;;;;;;4.65;4.18;;;11.30;99.90;;;;;;5091802;28;20224;-77
2022/11/12 04:02:59;;;;;;;5.40;4.22;;;11.30;99.90;;;;;;5093125;28;20254;-77
2022/11/12 04:11:02;;;;;;;4.53;4.10;;;11.20;99.90;;;;;;5093433;28;20565;-78
2022/11/12 04:13:32;;;;;;;4.45;3.90;;;11.20;99.90;;;;;;5078473;28;20232;-78
2022/11/12 04:21:56;;;;;;;4.40;3.95;;;11.20;99.90;;;;;;5066488;28;20230;-78
2022/11/12 04:27:14;;;;;;;4.10;3.70;;;11.20;99.90;;;;;;5082814;28;20230;-78
2022/11/12 04:32:26;;;;;;;5.38;4.00;;;11.10;99.90;;;;;;5078138;28;20679;-78
2022/11/12 04:34:58;;;;;;;4.97;4.47;;;11.10;99.90;;;;;;5086865;28;20614;-77
2022/11/12 04:37:27;;;;;;;3.78;3.47;;;11.10;99.90;;;;;;5078650;28;20227;-77
2022/11/12 04:44:58;;;;;;;5.15;4.38;;;11.20;99.90;;;;;;5079326;28;20224;-78
2022/11/12 04:45:29;;;;;;;5.47;4.00;;;11.10;99.90;;;;;;5068003;28;20324;-77
2022/11/12 04:47:56;;;;;;;4.03;3.55;;;11.10;99.90;;;;;;5080532;28;20223;-78
2022/11/12 04:50:24;;;;;;;5.10;4.00;;;11.10;99.90;;;;;;5086264;28;20227;-76
2022/11/12 04:52:51;;;;;;;5.90;4.20;;;11.10;99.90;;;;;;5076187;28;20276;-77
2022/11/12 04:55:18;;;;;;;6.93;4.18;;;11.10;99.90;;;;;;5083652;28;20281;-77
2022/11/12 04:57:45;;;;;;;4.53;4.05;;;11.10;99.90;;;;;;5077909;28;20228;-77
2022/11/12 05:00:13;;;;;;;6.40;4.30;;;11.10;99.90;;;;;;5077320;28;20223;-77
2022/11/12 05:02:40;;;;;;;6.95;4.15;;;11.10;99.90;;;;;;5085919;28;20235;-77
2022/11/12 05:05:08;;;;;;;4.72;4.05;;;11.10;99.90;;;;;;5081421;28;20223;-78
2022/11/12 05:07:40;;;;;;;5.30;4.80;;;11.00;99.90;;;;;;5094282;28;20249;-78
2022/11/12 05:10:08;;;;;;;5.38;4.45;;;11.00;99.90;;;;;;5098027;28;20216;-78
2022/11/12 05:12:35;;;;;;;4.95;4.50;;;11.00;99.90;;;;;;5086882;28;20224;-79
2022/11/12 05:15:02;;;;;;;7.93;4.88;;;10.90;99.90;;;;;;5093053;28;20223;-80
2022/11/12 05:17:29;;;;;;;5.97;5.10;;;10.90;99.90;;;;;;5090266;28;20215;-78
2022/11/12 05:19:56;;;;;;;6.72;4.78;;;10.90;99.90;;;;;;5092302;28;20223;-77
2022/11/12 05:22:24;;;;;;;39.42;25.45;;;10.90;99.90;;;;;;5093867;28;20219;-78
2022/11/12 05:24:55;;;;;;;6.25;5.38;;;10.90;99.90;;;;;;5095064;28;20712;-77
2022/11/12 05:27:22;;;;;;;6.03;4.78;;;10.80;99.90;;;;;;5096244;28;20610;-78
2022/11/12 05:29:49;;;;;;;4.78;4.25;;;10.80;99.90;;;;;;5095526;28;20237;-78
2022/11/12 05:32:26;;;;;;;6.32;4.90;;;10.80;99.90;;;;;;5096280;28;20311;-78
2022/11/12 05:34:53;;;;;;;4.65;4.25;;;10.80;99.90;;;;;;5094953;28;20261;-78
2022/11/12 05:37:20;;;;;;;7.22;5.47;;;10.80;99.90;;;;;;5095222;28;20219;-78
2022/11/12 05:39:57;;;;;;;6.60;5.07;;;10.70;99.90;;;;;;5095421;28;20243;-78
2022/11/12 05:42:25;;;;;;;6.10;4.70;;;10.70;99.90;;;;;;5096466;28;20238;-79
2022/11/12 05:44:53;;;;;;;7.45;4.85;;;10.70;99.90;;;;;;5103261;28;20223;-77
2022/11/12 05:47:20;;;;;;;9.48;4.82;;;10.70;99.90;;;;;;5097849;28;20289;-77
2022/11/12 05:49:47;;;;;;;6.68;5.68;;;10.70;99.90;;;;;;5099443;28;20310;-77
2022/11/12 05:52:14;;;;;;;6.00;5.30;;;10.70;99.90;;;;;;5099876;28;20250;-77
2022/11/12 05:54:41;;;;;;;7.47;4.88;;;10.70;99.90;;;;;;5100315;28;20223;-76
2022/11/12 05:57:08;;;;;;;6.22;5.10;;;10.70;99.90;;;;;;5096595;28;20223;-76
2022/11/12 05:59:36;;;;;;;6.45;5.78;;;10.60;99.90;;;;;;5096829;28;20394;-75
2022/11/12 06:02:03;;;;;;;7.65;6.25;;;10.60;99.90;;;;;;5096682;28;20231;-75
2022/11/12 06:04:30;;;;;;;7.05;6.05;;;10.60;99.90;;;;;;5096650;28;20223;-77
2022/11/12 06:07:02;;;;;;;8.05;6.57;;;10.60;99.90;;;;;;5101470;28;20238;-78
2022/11/12 06:09:30;;;;;;;7.72;5.35;;;10.60;99.90;;;;;;5101130;28;20568;-78
2022/11/12 06:11:57;;;;;;;7.35;4.70;;;10.60;99.90;;;;;;5100873;28;20315;-78
2022/11/12 06:14:27;;;;;;;5.82;4.75;;;10.50;99.90;;;;;;5103718;28;20238;-78
2022/11/12 06:16:57;;;;;;;7.47;5.43;;;10.50;99.90;;;;;;5100479;28;20276;-77
2022/11/12 06:19:25;;;;;;;5.22;4.72;;;10.50;99.90;;;;;;5098401;28;20234;-77
2022/11/12 06:21:52;;;;;;;7.55;4.93;;;10.50;99.90;;;;;;5100212;28;20303;-78
2022/11/12 06:24:19;;;;;;;5.05;4.55;;;10.50;99.90;;;;;;5101272;28;20234;-77
2022/11/12 06:26:46;;;;;;;8.32;4.70;;;10.50;99.90;;;;;;5102530;28;20219;-76
2022/11/12 06:29:13;;;;;;;6.90;5.25;;;10.50;99.90;;;;;;5088227;28;20227;-77
2022/11/12 06:31:43;;;;;;;6.00;4.40;;;10.50;99.90;;;;;;5090344;28;20231;-76
2022/11/12 06:34:15;;;;;;;4.97;4.30;;;10.50;99.90;;;;;;5099606;28;20219;-77
2022/11/12 06:36:44;;;;;;;5.40;4.70;;;10.50;99.90;;;;;;5104027;28;20230;-77
2022/11/12 06:39:11;;;;;;;5.07;4.60;;;10.50;99.90;;;;;;5105845;28;20312;-76
2022/11/12 06:41:39;;;;;;;6.65;5.22;;;10.50;99.90;;;;;;5097371;28;20219;-77
2022/11/12 06:44:07;;;;;;;7.47;5.55;;;10.40;99.90;;;;;;5098351;28;20709;-77
2022/11/12 06:46:36;;;;;;;8.57;5.65;;;10.40;99.90;;;;;;5099073;28;20300;-78
2022/11/12 06:49:03;;;;;;;7.50;4.93;;;10.40;99.90;;;;;;5097966;28;20235;-77
2022/11/12 06:51:32;;;;;;;6.40;5.68;;;10.40;99.90;;;;;;5103030;28;20231;-78
2022/11/12 06:53:59;;;;;;;7.38;5.70;;;10.40;99.90;;;;;;5101991;28;20230;-77
2022/11/12 06:56:26;;;;;;;8.93;4.57;;;10.40;99.90;;;;;;5104630;28;20212;-78
2022/11/12 06:58:54;;;;;;;8.98;4.93;;;10.40;99.90;;;;;;5104131;28;20228;-78
2022/11/12 07:01:22;;;;;;;7.38;6.20;;;10.40;99.90;;;;;;5102740;28;20215;-77
2022/11/12 07:03:52;;;;;;;7.10;6.15;;;10.40;99.90;;;;;;5100760;28;20227;-78
2022/11/12 07:06:22;;;;;;;7.13;5.90;;;10.40;99.90;;;;;;5103564;28;20254;-79
2022/11/12 07:08:51;;;;;;;7.40;6.38;;;10.50;99.90;;;;;;5102607;28;20230;-77
2022/11/12 07:11:20;;;;;;;6.95;5.57;;;10.50;99.90;;;;;;5114190;28;20223;-78
2022/11/12 07:13:47;;;;;;;6.65;5.47;;;10.50;99.90;;;;;;5105847;28;20671;-77
2022/11/12 07:16:17;;;;;;;6.40;5.68;;;10.60;99.90;;;;;;5107766;28;20681;-77
2022/11/12 07:18:45;;;;;;;6.32;5.72;;;10.60;99.90;;;;;;5108797;28;20247;-77
2022/11/12 07:21:16;;;;;;;7.15;5.25;;;10.60;99.90;;;;;;5100317;28;20285;-77
2022/11/12 07:23:43;;;;;;;8.40;6.25;;;10.60;99.90;;;;;;5100497;28;20253;-76
2022/11/12 07:26:16;;;;;;;5.95;5.30;;;10.60;99.90;;;;;;5099543;28;20223;-77
2022/11/12 07:28:49;;;;;;;7.38;5.43;;;10.70;99.90;;;;;;5099881;28;20672;-76
2022/11/12 07:31:19;;;;;;;7.15;5.05;;;10.70;99.90;;;;;;5101257;28;20227;-77
2022/11/12 07:33:51;;;;;;;8.20;5.95;;;10.70;99.90;;;;;;5101574;28;20223;-77
2022/11/12 07:36:19;;;;;;;8.73;5.90;;;10.70;99.90;;;;;;5098164;28;20310;-78
2022/11/12 07:38:52;;;;;;;6.47;5.55;;;10.80;99.90;;;;;;5096214;28;20261;-77
2022/11/12 07:41:22;;;;;;;7.15;5.80;;;10.80;99.90;;;;;;5094783;28;20282;-77
2022/11/12 07:43:51;;;;;;;9.88;6.38;;;10.80;99.90;;;;;;5096382;28;20664;-76
2022/11/12 07:46:21;;;;;;;6.65;5.60;;;10.90;99.90;;;;;;5092698;28;20243;-77
2022/11/12 07:49:05;;;;;;;;;;;;;;;;;;;;;
2022/11/12 07:51:32;;;;;;;5.45;4.97;;;10.90;99.90;;;;;;5094692;28;20219;-77
2022/11/12 07:54:00;;;;;;;6.55;5.35;;;10.90;99.90;;;;;;5094400;28;20247;-77
2022/11/12 07:56:31;;;;;;;7.18;6.05;;;10.90;99.90;;;;;;5094210;28;21055;-77
2022/11/12 07:59:01;;;;;;;12.45;9.52;;;11.00;99.90;;;;;;5094664;28;20265;-77
2022/11/12 08:01:31;;;;;;;11.50;8.23;;;11.00;99.90;;;;;;5092488;28;20738;-77
2022/11/12 08:03:59;;;;;;;7.85;6.53;;;11.00;99.90;;;;;;5099588;28;20233;-78
2022/11/12 08:06:26;;;;;;;7.75;6.07;;;11.00;99.90;;;;;;5092920;28;20602;-78
2022/11/12 08:08:57;;;;;;;9.77;6.90;;;11.00;99.90;;;;;;5095248;28;20310;-77
2022/11/12 08:11:25;;;;;;;6.43;5.82;;;11.00;99.90;;;;;;5092895;28;20219;-78
2022/11/12 08:13:53;;;;;;;7.45;6.75;;;11.00;99.90;;;;;;5094897;28;20555;-78
2022/11/12 08:16:23;;;;;;;10.68;7.93;;;11.10;99.90;;;;;;5093488;28;20668;-77
2022/11/12 08:18:52;;;;;;;7.03;6.32;;;11.10;99.90;;;;;;5093752;28;20254;-77
2022/11/12 08:21:20;;;;;;;7.32;6.28;;;11.20;99.90;;;;;;5100408;28;20222;-77
2022/11/12 08:23:47;;;;;;;7.65;6.20;;;11.20;99.90;;;;;;5091930;28;20310;-77
2022/11/12 08:26:18;;;;;;;7.10;5.32;;;11.30;99.90;;;;;;5093763;28;20230;-78
2022/11/12 08:28:46;;;;;;;5.82;5.32;;;11.30;99.90;;;;;;5091814;28;20219;-76
2022/11/12 08:31:26;;;;;;;7.38;6.15;;;11.30;99.90;;;;;;5092289;28;20223;-77
2022/11/12 08:34:10;;;;;;;9.85;7.45;;;11.40;99.90;;;;;;5086587;28;20230;-78
2022/11/12 08:36:39;;;;;;;8.43;7.60;;;11.40;99.90;;;;;;5103912;28;20622;-76
2022/11/12 08:39:09;;;;;;;9.65;8.65;;;11.50;99.90;;;;;;5094619;28;20230;-78
2022/11/12 08:41:38;;;;;;;11.77;10.57;;;11.50;99.90;;;;;;5084993;28;20243;-77
2022/11/12 08:44:05;;;;;;;15.90;12.30;;;11.50;99.90;;;;;;5093796;28;20314;-77
2022/11/12 08:46:34;;;;;;;15.93;12.93;;;11.60;99.90;;;;;;5093672;28;20222;-77
2022/11/12 08:49:01;;;;;;;12.25;10.68;;;11.60;99.90;;;;;;5093560;28;20564;-77
2022/11/12 08:51:31;;;;;;;10.52;9.05;;;11.70;99.90;;;;;;5096479;28;20683;-77
2022/11/12 08:53:58;;;;;;;10.18;7.85;;;11.70;99.90;;;;;;5099213;28;20226;-78
2022/11/12 08:56:26;;;;;;;8.35;7.18;;;11.80;99.90;;;;;;5093311;28;20669;-78
2022/11/12 08:58:53;;;;;;;9.73;8.13;;;11.80;99.90;;;;;;5091319;28;20310;-77
2022/11/12 09:01:20;;;;;;;7.50;6.38;;;11.80;99.90;;;;;;5100847;28;20280;-77
2022/11/12 09:03:52;;;;;;;7.65;6.95;;;11.90;99.90;;;;;;5093093;28;20281;-77
2022/11/12 09:06:19;;;;;;;7.55;6.18;;;12.00;99.90;;;;;;5091709;28;20229;-77
2022/11/12 09:08:48;;;;;;;5.75;5.07;;;12.00;99.90;;;;;;5083783;28;20293;-79
2022/11/12 09:11:18;;;;;;;6.35;5.75;;;12.10;99.90;;;;;;5092375;28;20536;-77
2022/11/12 09:13:48;;;;;;;6.97;6.28;;;12.20;99.90;;;;;;5092869;28;20231;-77
2022/11/12 09:16:16;;;;;;;6.30;5.70;;;12.20;99.90;;;;;;5092649;28;20227;-77
2022/11/12 09:18:44;;;;;;;11.68;7.13;;;12.30;99.90;;;;;;5092834;28;20235;-78
2022/11/12 09:21:12;;;;;;;6.10;5.60;;;12.30;99.90;;;;;;5092629;28;20223;-78
2022/11/12 09:23:40;;;;;;;7.43;6.72;;;12.40;99.90;;;;;;5082750;28;20700;-78
2022/11/12 09:26:07;;;;;;;8.55;6.57;;;12.40;99.90;;;;;;5074744;28;20238;-78
2022/11/12 09:28:34;;;;;;;6.43;5.43;;;12.50;99.90;;;;;;5092616;28;20253;-78
2022/11/12 09:31:02;;;;;;;10.15;7.35;;;12.50;99.90;;;;;;5089861;28;20323;-77
2022/11/12 09:33:34;;;;;;;8.48;6.93;;;12.50;99.90;;;;;;5099520;28;20224;-77
2022/11/12 09:36:05;;;;;;;8.60;7.70;;;12.50;99.90;;;;;;5092436;28;20238;-77
2022/11/12 09:38:34;;;;;;;8.80;7.13;;;12.60;99.90;;;;;;5092483;28;20272;-78
2022/11/12 09:41:17;;;;;;;8.00;6.95;;;12.60;99.90;;;;;;5092802;28;20620;-78
2022/11/12 09:43:49;;;;;;;8.55;7.70;;;12.60;99.90;;;;;;5093350;28;20219;-78
2022/11/12 09:46:31;;;;;;;9.57;7.57;;;12.70;99.90;;;;;;5092145;28;20405;-79
2022/11/12 09:49:03;;;;;;;6.95;6.25;;;12.70;99.90;;;;;;5091897;28;20572;-79
2022/11/12 09:51:51;;;;;;;8.60;7.70;;;12.70;99.90;;;;;;5092292;28;20225;-78
2022/11/12 09:54:24;;;;;;;10.27;8.35;;;12.80;99.90;;;;;;5088955;28;20464;-78
2022/11/12 09:56:52;;;;;;;8.93;7.95;;;12.80;99.90;;;;;;5092543;28;20293;-79
2022/11/12 09:59:19;;;;;;;10.45;7.68;;;12.90;99.90;;;;;;5091512;28;20220;-78
2022/11/12 10:02:01;;;;;;;10.32;8.05;;;12.90;99.90;;;;;;5092680;28;20227;-78
2022/11/12 10:05:11;;;;;;;7.65;6.90;;;13.00;99.90;;;;;;5092102;28;20661;-78
2022/11/12 10:07:46;;;;;;;11.60;9.68;;;13.00;99.90;;;;;;5063484;28;20219;-78
2022/11/12 10:10:21;;;;;;;8.65;7.78;;;13.00;99.90;;;;;;5095212;28;20676;-78
2022/11/12 10:13:03;;;;;;;9.70;8.27;;;13.00;99.90;;;;;;5096120;28;20235;-78
2022/11/12 10:18:42;;;;;;;9.05;8.15;;;13.10;99.90;;;;;;5107268;28;20226;-77
2022/11/12 10:21:28;;;;;;;9.87;8.10;;;13.20;99.90;;;;;;5095816;28;20219;-78
2022/11/12 10:23:55;;;;;;;8.95;7.50;;;13.20;99.90;;;;;;5095187;28;20449;-78
2022/11/12 10:26:26;;;;;;;9.82;8.80;;;13.30;99.90;;;;;;5096272;28;20222;-77
2022/11/12 10:29:01;;;;;;;10.80;8.07;;;13.30;99.90;;;;;;5095638;28;20645;-78
2022/11/12 10:31:30;;;;;;;8.97;8.07;;;13.40;99.90;;;;;;5095875;28;20468;-78
2022/11/12 10:34:14;;;;;;;11.20;8.63;;;13.40;99.90;;;;;;5094861;28;20446;-78
2022/11/12 10:36:45;;;;;;;9.23;8.03;;;13.50;99.90;;;;;;5094678;28;20489;-78
2022/11/12 10:39:35;;;;;;;11.63;9.20;;;13.50;99.90;;;;;;5095549;28;20608;-77
2022/11/12 10:42:06;;;;;;;11.53;8.47;;;13.60;99.90;;;;;;5094386;28;20529;-77
2022/11/12 10:44:39;;;;;;;9.97;8.97;;;13.60;99.90;;;;;;5095633;28;20499;-77
2022/11/12 10:47:22;;;;;;;14.43;7.80;;;13.70;99.90;;;;;;5095046;28;20457;-77
2022/11/12 10:50:10;;;;;;;9.63;7.43;;;13.70;99.90;;;;;;5085318;28;20536;-77
2022/11/12 10:52:52;;;;;;;10.90;7.83;;;13.80;99.90;;;;;;5095610;28;20481;-78
2022/11/12 10:55:22;;;;;;;8.80;7.90;;;13.80;99.90;;;;;;5098196;28;20527;-77
2022/11/12 10:58:12;;;;;;;10.23;8.77;;;13.90;99.90;;;;;;5102740;28;20461;-77
2022/11/12 11:00:56;;;;;;;10.47;7.67;;;14.00;99.90;;;;;;5103579;28;20475;-78
2022/11/12 11:03:26;;;;;;;8.23;7.43;;;14.00;99.90;;;;;;5097990;28;20504;-77
2022/11/12 11:05:57;;;;;;;9.13;7.70;;;14.00;99.90;;;;;;5095725;28;20477;-77
2022/11/12 11:08:40;;;;;;;8.33;7.23;;;14.10;99.90;;;;;;5096996;28;20475;-77
2022/11/12 11:11:26;;;;;;;7.33;6.20;;;14.10;99.90;;;;;;5097682;28;20778;-77
2022/11/12 11:13:56;;;;;;;9.67;6.83;;;14.10;99.90;;;;;;5090405;28;20462;-77
2022/11/12 11:16:26;;;;;;;9.60;6.70;;;14.20;99.90;;;;;;5097940;28;20492;-77
2022/11/12 11:18:57;;;;;;;7.87;6.53;;;14.20;99.90;;;;;;5096774;28;20784;-77
2022/11/12 11:21:46;;;;;;;8.80;7.37;;;14.20;99.90;;;;;;5098994;28;20465;-78
2022/11/12 11:24:29;;;;;;;8.17;6.10;;;14.20;99.90;;;;;;5098460;28;20934;-78
2022/11/12 11:27:03;;;;;;;6.83;6.20;;;14.20;99.90;;;;;;5097729;28;20572;-78
2022/11/12 11:29:51;;;;;;;8.57;7.77;;;14.30;99.90;;;;;;5096236;28;20535;-78
2022/11/12 11:32:36;;;;;;;8.97;6.70;;;14.30;99.90;;;;;;5096176;28;20550;-77
2022/11/12 11:35:14;;;;;;;11.50;7.10;;;14.30;99.90;;;;;;5096163;28;20507;-77
2022/11/12 11:37:50;;;;;;;7.70;6.33;;;14.30;99.90;;;;;;5097962;28;20469;-78
2022/11/12 11:40:25;;;;;;;8.83;7.23;;;14.30;99.90;;;;;;5099456;28;20457;-78
2022/11/12 11:43:11;;;;;;;8.67;7.30;;;14.30;99.90;;;;;;5101078;28;20918;-78
2022/11/12 11:45:55;;;;;;;10.20;7.70;;;14.30;99.90;;;;;;5094403;28;20480;-77
2022/11/12 11:48:32;;;;;;;7.83;6.83;;;14.40;99.90;;;;;;5099300;28;20575;-79
2022/11/12 11:51:04;;;;;;;11.00;6.43;;;14.30;99.90;;;;;;5101445;28;20465;-78
2022/11/12 11:53:41;;;;;;;7.70;6.87;;;14.40;99.90;;;;;;5094991;28;20466;-78
2022/11/12 11:56:17;;;;;;;6.03;5.43;;;14.40;99.90;;;;;;5122922;28;20465;-79
2022/11/12 11:58:59;;;;;;;9.17;5.53;;;14.40;99.90;;;;;;5112053;28;20491;-78
2022/11/12 12:01:36;;;;;;;7.90;6.97;;;14.40;99.90;;;;;;5110486;28;20470;-77
2022/11/12 12:04:22;;;;;;;7.50;5.87;;;14.40;99.90;;;;;;5111689;28;20468;-77
2022/11/12 12:07:08;;;;;;;8.70;6.80;;;14.40;99.90;;;;;;5103079;28;20553;-77
2022/11/12 12:09:42;;;;;;;7.10;6.50;;;14.40;99.90;;;;;;5102171;28;20483;-78
2022/11/12 12:12:25;;;;;;;8.10;7.30;;;14.40;99.90;;;;;;5118131;28;20452;-77
2022/11/12 12:15:26;;;;;;;9.40;6.60;;;14.40;99.90;;;;;;5110947;28;20437;-78
2022/11/12 12:18:02;;;;;;;10.13;5.97;;;14.40;99.90;;;;;;5112663;28;20457;-77
2022/11/12 12:20:36;;;;;;;8.33;6.13;;;14.40;99.90;;;;;;5113463;28;20469;-78
2022/11/12 12:23:11;;;;;;;6.17;5.57;;;14.40;99.90;;;;;;5108960;28;20540;-78
2022/11/12 12:25:41;;;;;;;6.03;5.50;;;14.40;99.90;;;;;;5107202;28;20523;-78
2022/11/12 12:28:28;;;;;;;6.47;5.73;;;14.40;99.90;;;;;;5095916;28;20507;-77
2022/11/12 12:31:07;;;;;;;6.77;5.90;;;14.40;99.90;;;;;;5093950;28;20845;-77
2022/11/12 12:33:45;;;;;;;6.83;6.13;;;14.40;99.90;;;;;;5088549;28;20504;-76
2022/11/12 12:36:20;;;;;;;6.77;5.70;;;14.50;99.90;;;;;;5104080;28;20476;-76
2022/11/12 12:38:52;;;;;;;7.53;6.53;;;14.50;99.90;;;;;;5099030;28;20496;-76
2022/11/12 12:41:26;;;;;;;6.13;5.10;;;14.50;99.90;;;;;;5108440;28;20464;-77
2022/11/12 12:44:25;;;;;;;;;;;;;;;;;;;;;
2022/11/12 12:46:58;;;;;;;6.00;5.40;;;14.40;99.90;;;;;;5096458;28;20473;-78
2022/11/12 12:49:32;;;;;;;6.53;5.83;;;14.40;99.90;;;;;;5098163;28;20475;-78
2022/11/12 12:52:00;;;;;;;9.13;7.10;;;14.40;99.90;;;;;;5095878;28;20821;-78
2022/11/12 12:55:00;;;;;;;7.17;6.47;;;14.40;99.90;;;;;;5102730;28;20507;-79
2022/11/12 12:57:36;;;;;;;8.90;8.00;;;14.40;99.90;;;;;;5084270;28;20481;-77
2022/11/12 13:00:29;;;;;;;11.77;7.83;;;14.40;99.90;;;;;;5087177;28;20476;-78
2022/11/12 13:03:05;;;;;;;9.50;8.40;;;14.40;99.90;;;;;;5088346;28;20489;-78
2022/11/12 13:05:39;;;;;;;12.23;10.97;;;14.40;99.90;;;;;;5094530;28;20473;-79
2022/11/12 13:08:09;;;;;;;12.80;11.00;;;14.30;99.90;;;;;;5094243;28;20790;-79
2022/11/12 13:10:56;;;;;;;11.43;10.03;;;14.30;99.90;;;;;;5095395;28;20788;-78
2022/11/12 13:13:35;;;;;;;10.40;9.30;;;14.30;99.90;;;;;;5094424;28;20542;-79
2022/11/12 13:16:03;;;;;;;11.53;10.40;;;14.30;99.90;;;;;;5093543;28;20457;-77
2022/11/12 13:19:10;;;;;;;13.10;9.90;;;14.30;99.90;;;;;;5094450;28;20793;-78
2022/11/12 13:21:39;;;;;;;10.40;9.30;;;14.30;99.90;;;;;;5085363;28;20469;-77
2022/11/12 13:24:11;;;;;;;10.50;9.47;;;14.30;99.90;;;;;;5077155;28;21265;-77
2022/11/12 13:26:45;;;;;;;9.53;8.67;;;14.30;99.90;;;;;;5102488;28;20492;-76
2022/11/12 13:29:40;;;;;;;14.93;10.50;;;14.30;99.90;;;;;;5100976;28;20460;-77
2022/11/12 13:32:37;;;;;;;15.40;10.23;;;14.30;99.90;;;;;;5093550;28;20491;-77
2022/11/12 13:35:25;;;;;;;10.80;9.00;;;14.20;99.90;;;;;;5092673;28;20480;-76
2022/11/12 13:37:55;;;;;;;9.53;8.63;;;14.20;99.90;;;;;;5092310;28;20956;-77
2022/11/12 13:40:39;;;;;;;11.40;9.80;;;14.20;99.90;;;;;;5092970;28;20466;-76